Time;durP1;ratioP1;P1;durP2;ratioP2;P2;SDS_P1;SDS_P2;PMS_P1;PMS_P2;Temp;Humidity;BMP_temperature;BMP_pressure;BME280_temperature;BME280_humidity;BME280_pressure;Samples;Min_cycle;Max_cycle;Signal;HPM_P1;HPM_P2
2022/06/10 00:00:43;;;;;;;7.13;2.75;;;11.30;99.90;;;;;;5031764;28;20137;-75
2022/06/10 00:03:13;;;;;;;5.18;2.03;;;11.30;99.90;;;;;;5031947;28;20124;-75
2022/06/10 00:05:40;;;;;;;8.98;2.55;;;11.20;99.90;;;;;;5018993;28;20072;-75
2022/06/10 00:08:09;;;;;;;6.32;2.42;;;11.30;99.90;;;;;;5035899;28;20068;-75
2022/06/10 00:10:35;;;;;;;7.32;2.80;;;11.20;99.90;;;;;;5035802;28;20095;-75
2022/06/10 00:13:01;;;;;;;6.28;2.40;;;11.30;99.90;;;;;;5019359;28;20151;-75
2022/06/10 00:15:27;;;;;;;6.00;2.58;;;11.20;99.90;;;;;;5019102;28;20041;-74
2022/06/10 00:17:53;;;;;;;5.88;2.75;;;11.20;99.90;;;;;;5019097;28;20083;-74
2022/06/10 00:20:22;;;;;;;8.55;2.60;;;11.20;99.90;;;;;;5018937;28;20045;-74
2022/06/10 00:22:48;;;;;;;6.10;2.97;;;11.10;99.90;;;;;;5035649;28;20483;-74
2022/06/10 00:25:14;;;;;;;5.18;2.17;;;11.20;99.90;;;;;;5035608;28;20039;-74
2022/06/10 00:27:40;;;;;;;7.50;2.70;;;11.10;99.90;;;;;;5035650;28;20123;-75
2022/06/10 00:30:08;;;;;;;6.90;2.60;;;11.10;99.90;;;;;;5035588;28;20071;-74
2022/06/10 00:32:33;;;;;;;4.35;2.63;;;11.10;99.90;;;;;;5019181;28;20552;-74
2022/06/10 00:34:59;;;;;;;6.72;2.28;;;11.10;99.90;;;;;;5035180;28;20040;-74
2022/06/10 00:37:25;;;;;;;5.18;2.53;;;11.00;99.90;;;;;;5035624;28;20386;-74
2022/06/10 00:39:50;;;;;;;8.23;2.92;;;11.10;99.90;;;;;;5035134;28;20037;-74
2022/06/10 00:42:16;;;;;;;5.88;2.58;;;11.00;99.90;;;;;;5018532;28;20049;-74
2022/06/10 00:44:46;;;;;;;8.30;2.80;;;11.10;99.90;;;;;;5035031;28;20052;-74
2022/06/10 00:47:12;;;;;;;6.10;2.40;;;11.00;99.90;;;;;;5035167;28;20053;-75
2022/06/10 00:49:39;;;;;;;5.28;2.80;;;11.00;99.90;;;;;;5035067;28;20053;-74
2022/06/10 00:52:05;;;;;;;5.63;2.30;;;11.00;99.90;;;;;;5035156;28;20047;-74
2022/06/10 00:54:43;;;;;;;9.48;2.60;;;11.00;99.90;;;;;;5034643;28;20053;-74
2022/06/10 00:57:16;;;;;;;9.20;2.70;;;11.00;99.90;;;;;;5034838;28;20048;-74
2022/06/10 00:59:55;;;;;;;9.95;3.00;;;10.90;99.90;;;;;;5034598;28;20486;-74
2022/06/10 01:02:24;;;;;;;10.50;3.05;;;10.80;99.90;;;;;;5035041;28;20118;-74
2022/06/10 01:04:52;;;;;;;8.88;3.00;;;10.80;99.90;;;;;;5018257;28;20143;-74
2022/06/10 01:07:23;;;;;;;6.55;2.80;;;10.80;99.90;;;;;;5034807;28;20124;-74
2022/06/10 01:09:50;;;;;;;7.43;2.80;;;10.70;99.90;;;;;;5034520;28;20134;-74
2022/06/10 01:12:41;;;;;;;5.78;2.80;;;10.70;99.90;;;;;;5018474;28;20044;-74
2022/06/10 01:15:52;;;;;;;6.78;3.03;;;10.70;99.90;;;;;;5033858;28;20151;-74
2022/06/10 01:19:04;;;;;;;6.57;2.72;;;10.80;99.90;;;;;;4974264;28;20188;-74
2022/06/10 01:21:52;;;;;;;5.50;2.72;;;10.70;99.90;;;;;;4974231;28;20042;-74
2022/06/10 01:24:50;;;;;;;5.38;2.70;;;10.70;99.90;;;;;;5013935;28;20049;-74
2022/06/10 01:27:48;;;;;;;9.40;2.70;;;10.70;99.90;;;;;;5034280;28;20120;-74
2022/06/10 01:30:22;;;;;;;8.20;2.97;;;10.70;99.90;;;;;;5034341;28;20057;-74
2022/06/10 01:33:12;;;;;;;3.65;2.60;;;10.60;99.90;;;;;;5034470;28;20128;-74
2022/06/10 01:36:08;;;;;;;8.05;3.28;;;10.60;99.90;;;;;;5034176;28;20048;-74
2022/06/10 01:38:37;;;;;;;6.25;3.30;;;10.60;99.90;;;;;;5034487;28;20047;-74
2022/06/10 01:41:27;;;;;;;5.57;3.33;;;10.60;99.90;;;;;;5033854;28;20041;-76
2022/06/10 01:44:10;;;;;;;7.93;3.30;;;10.60;99.90;;;;;;5017686;28;20080;-74
2022/06/10 01:46:41;;;;;;;6.18;3.28;;;10.60;99.90;;;;;;5033936;28;20048;-74
2022/06/10 01:49:20;;;;;;;11.52;4.00;;;10.50;99.90;;;;;;5033894;28;20039;-74
2022/06/10 01:52:09;;;;;;;7.55;3.65;;;10.60;99.90;;;;;;5033651;28;20076;-74
2022/06/10 01:55:07;;;;;;;5.95;3.28;;;10.50;99.90;;;;;;5033725;28;20079;-74
2022/06/10 01:57:49;;;;;;;5.32;3.40;;;10.50;99.90;;;;;;5033978;28;20057;-74
2022/06/10 02:00:28;;;;;;;7.20;3.50;;;10.50;99.90;;;;;;5016972;28;20040;-74
2022/06/10 02:03:28;;;;;;;7.68;3.92;;;10.50;99.90;;;;;;5033677;28;20260;-74
2022/06/10 02:06:19;;;;;;;8.25;3.70;;;10.40;99.90;;;;;;5033682;28;20390;-74
2022/06/10 02:08:52;;;;;;;9.23;3.72;;;10.40;99.90;;;;;;5017403;28;20055;-75
2022/06/10 02:11:22;;;;;;;6.50;3.22;;;10.40;99.90;;;;;;5033698;28;20041;-74
2022/06/10 02:13:53;;;;;;;6.82;3.72;;;10.40;99.90;;;;;;5033510;28;20641;-75
2022/06/10 02:16:24;;;;;;;4.88;2.97;;;10.30;99.90;;;;;;5033577;28;20132;-75
2022/06/10 02:19:16;;;;;;;7.65;3.75;;;10.30;99.90;;;;;;5033390;28;20408;-74
2022/06/10 02:21:56;;;;;;;7.70;3.70;;;10.30;99.90;;;;;;5008596;28;20311;-74
2022/06/10 02:24:35;;;;;;;8.10;3.70;;;10.30;99.90;;;;;;5033560;28;20076;-74
2022/06/10 02:27:08;;;;;;;5.50;3.70;;;10.30;99.90;;;;;;5016579;28;20101;-74
2022/06/10 02:29:39;;;;;;;5.90;3.67;;;10.30;99.90;;;;;;5033272;28;20116;-74
2022/06/10 02:32:05;;;;;;;7.57;3.72;;;10.30;99.90;;;;;;5017013;28;20371;-74
2022/06/10 02:34:30;;;;;;;7.32;4.13;;;10.30;99.90;;;;;;5017010;28;20432;-74
2022/06/10 02:37:05;;;;;;;5.43;4.10;;;10.30;99.90;;;;;;5032838;28;20120;-74
2022/06/10 02:39:40;;;;;;;7.97;3.83;;;10.30;99.90;;;;;;5032982;28;20045;-74
2022/06/10 02:42:21;;;;;;;7.88;3.63;;;10.20;99.90;;;;;;5032763;28;20124;-74
2022/06/10 02:44:55;;;;;;;5.20;3.53;;;10.20;99.90;;;;;;5033419;28;20403;-74
2022/06/10 02:47:24;;;;;;;6.22;3.97;;;10.20;99.90;;;;;;5016470;28;20041;-74
2022/06/10 02:49:50;;;;;;;6.30;3.75;;;10.20;99.90;;;;;;5033097;28;20072;-74
2022/06/10 02:52:19;;;;;;;7.88;3.88;;;10.10;99.90;;;;;;5016138;28;20040;-74
2022/06/10 02:54:45;;;;;;;10.30;4.28;;;10.10;99.90;;;;;;5032463;28;20526;-74
2022/06/10 03:01:11;;;;;;;7.28;3.92;;;10.10;99.90;;;;;;5032802;28;20482;-75
2022/06/10 03:03:10;;;;;;;6.90;4.00;;;10.10;99.90;;;;;;5032914;28;20506;-74
2022/06/10 03:06:28;;;;;;;9.23;4.45;;;10.10;99.90;;;;;;5032598;28;20033;-75
2022/06/10 03:09:08;;;;;;;9.45;4.13;;;10.00;99.90;;;;;;5002739;28;20538;-74
2022/06/10 03:12:09;;;;;;;9.18;4.50;;;10.00;99.90;;;;;;5032344;28;20506;-74
2022/06/10 03:14:47;;;;;;;9.90;4.57;;;10.00;99.90;;;;;;5032075;28;20045;-74
2022/06/10 03:17:31;;;;;;;10.10;4.20;;;10.00;99.90;;;;;;5032053;28;20654;-74
2022/06/10 03:20:29;;;;;;;6.03;3.97;;;10.00;99.90;;;;;;5015618;28;20041;-74
2022/06/10 03:23:37;;;;;;;5.78;4.05;;;10.00;99.90;;;;;;5032371;28;20132;-74
2022/06/10 03:26:31;;;;;;;10.23;4.15;;;10.00;99.90;;;;;;5032740;28;20378;-74
2022/06/10 03:29:30;;;;;;;5.25;3.90;;;10.00;99.90;;;;;;5032226;28;20076;-74
2022/06/10 03:32:25;;;;;;;10.38;4.47;;;10.00;99.90;;;;;;5015650;28;20094;-74
2022/06/10 03:35:00;;;;;;;6.63;4.00;;;10.00;99.90;;;;;;5012812;28;20049;-74
2022/06/10 03:37:26;;;;;;;7.00;3.92;;;10.00;99.90;;;;;;5015665;28;20044;-75
2022/06/10 03:39:54;;;;;;;9.10;4.00;;;10.00;99.90;;;;;;5018422;28;20041;-74
2022/06/10 03:42:22;;;;;;;10.80;4.68;;;10.10;99.90;;;;;;5036054;28;20124;-74
2022/06/10 03:44:51;;;;;;;6.95;4.28;;;10.10;99.90;;;;;;5036161;28;20037;-74
2022/06/10 03:47:25;;;;;;;5.88;3.97;;;10.20;99.90;;;;;;5035833;28;20037;-74
2022/06/10 03:49:57;;;;;;;6.32;4.13;;;10.20;99.90;;;;;;5036112;28;20115;-74
2022/06/10 03:52:25;;;;;;;7.60;3.83;;;10.20;99.90;;;;;;5036200;28;20502;-74
2022/06/10 03:54:50;;;;;;;7.82;4.15;;;10.30;99.90;;;;;;5035743;28;20499;-74
2022/06/10 03:57:17;;;;;;;6.18;3.65;;;10.30;99.90;;;;;;5036046;28;20123;-75
2022/06/10 03:59:44;;;;;;;7.25;3.83;;;10.40;99.90;;;;;;5019402;28;20091;-74
2022/06/10 04:02:10;;;;;;;8.90;4.78;;;10.40;99.90;;;;;;5035671;28;20048;-74
2022/06/10 04:04:36;;;;;;;6.20;3.88;;;10.40;99.90;;;;;;5035731;28;20403;-74
2022/06/10 04:07:02;;;;;;;7.40;4.10;;;10.40;99.90;;;;;;5035722;28;20040;-74
2022/06/10 04:09:28;;;;;;;8.25;4.15;;;10.50;99.90;;;;;;5035754;28;20040;-74
2022/06/10 04:11:53;;;;;;;8.00;4.40;;;10.50;99.90;;;;;;5035852;28;20049;-75
2022/06/10 04:14:19;;;;;;;9.32;4.60;;;10.50;99.90;;;;;;5035588;28;20124;-75
2022/06/10 04:16:45;;;;;;;9.30;4.47;;;10.60;99.90;;;;;;5035887;28;20051;-75
2022/06/10 04:19:12;;;;;;;10.52;4.30;;;10.60;99.90;;;;;;5035837;28;20053;-74
2022/06/10 04:21:38;;;;;;;6.72;4.10;;;10.60;99.90;;;;;;5035452;28;20041;-75
2022/06/10 04:24:04;;;;;;;10.00;4.82;;;10.70;99.90;;;;;;5035593;28;20110;-74
2022/06/10 04:26:30;;;;;;;7.88;4.20;;;10.80;99.90;;;;;;5035694;28;20591;-74
2022/06/10 04:28:55;;;;;;;6.40;4.20;;;10.80;99.90;;;;;;5035548;28;20037;-74
2022/06/10 04:31:21;;;;;;;10.32;4.70;;;10.90;99.90;;;;;;5035304;28;20371;-75
2022/06/10 04:33:47;;;;;;;8.05;4.70;;;10.90;99.90;;;;;;5035197;28;20135;-74
2022/06/10 04:36:18;;;;;;;8.23;4.30;;;11.00;99.90;;;;;;5035259;28;20045;-74
2022/06/10 04:38:44;;;;;;;9.13;4.65;;;11.10;99.90;;;;;;5018684;28;20049;-74
2022/06/10 04:41:11;;;;;;;13.40;4.90;;;11.20;99.90;;;;;;5018557;28;20052;-74
2022/06/10 04:43:37;;;;;;;12.38;4.97;;;11.20;99.90;;;;;;5035221;28;20490;-74
2022/06/10 04:46:05;;;;;;;11.77;5.00;;;11.30;99.90;;;;;;5034943;28;20043;-74
2022/06/10 04:48:31;;;;;;;9.57;5.20;;;11.40;99.90;;;;;;5035037;28;20094;-75
2022/06/10 04:50:57;;;;;;;13.57;5.57;;;11.50;99.90;;;;;;5034983;28;20200;-75
2022/06/10 04:53:23;;;;;;;9.68;5.18;;;11.60;99.90;;;;;;5031326;28;20167;-74
2022/06/10 04:55:48;;;;;;;14.07;5.70;;;11.70;99.90;;;;;;5031532;28;20084;-74
2022/06/10 04:58:14;;;;;;;7.68;5.00;;;11.80;99.90;;;;;;5031356;28;20045;-74
2022/06/10 05:00:43;;;;;;;8.77;5.22;;;11.90;99.90;;;;;;5015133;28;20458;-75
2022/06/10 05:03:10;;;;;;;14.63;5.45;;;12.00;99.90;;;;;;5031500;28;20413;-74
2022/06/10 05:05:36;;;;;;;14.23;5.75;;;12.10;99.90;;;;;;5031726;28;20041;-75
2022/06/10 05:08:02;;;;;;;10.82;5.20;;;12.30;99.90;;;;;;5031317;28;20256;-74
2022/06/10 05:10:28;;;;;;;8.95;5.63;;;12.50;99.90;;;;;;5031482;28;20498;-75
2022/06/10 05:12:54;;;;;;;10.98;5.07;;;12.80;99.90;;;;;;5014941;28;20513;-75
2022/06/10 05:15:21;;;;;;;14.32;5.32;;;13.10;99.90;;;;;;5031110;28;20068;-75
2022/06/10 05:17:49;;;;;;;7.45;4.30;;;13.40;99.90;;;;;;5031220;28;20037;-75
2022/06/10 05:20:24;;;;;;;14.38;4.70;;;13.70;99.90;;;;;;5014484;28;20041;-75
2022/06/10 05:22:50;;;;;;;10.65;3.90;;;14.00;99.90;;;;;;5031364;28;20048;-75
2022/06/10 05:25:15;;;;;;;10.27;4.13;;;14.20;99.90;;;;;;5031120;28;20049;-76
2022/06/10 05:27:41;;;;;;;16.30;3.67;;;14.40;99.90;;;;;;5031305;28;20056;-76
2022/06/10 05:30:09;;;;;;;9.38;4.15;;;14.70;99.90;;;;;;5031018;28;20041;-75
2022/06/10 05:32:35;;;;;;;11.27;4.10;;;14.90;99.90;;;;;;5014626;28;20380;-76
2022/06/10 05:35:01;;;;;;;9.82;3.75;;;15.20;99.90;;;;;;5030833;28;20052;-75
2022/06/10 05:37:27;;;;;;;6.63;3.78;;;15.40;99.90;;;;;;5014493;28;20033;-75
2022/06/10 05:39:53;;;;;;;9.18;3.50;;;15.50;99.90;;;;;;5014568;28;20041;-76
2022/06/10 05:42:19;;;;;;;8.30;3.78;;;15.60;99.90;;;;;;5030828;28;20034;-75
2022/06/10 05:44:47;;;;;;;8.25;3.78;;;15.60;99.90;;;;;;5030791;28;20046;-75
2022/06/10 05:47:16;;;;;;;10.07;3.75;;;15.70;99.90;;;;;;5030848;28;20045;-75
2022/06/10 05:49:44;;;;;;;10.35;3.63;;;15.80;99.90;;;;;;5030714;28;20033;-75
2022/06/10 05:52:12;;;;;;;8.30;3.70;;;15.90;99.90;;;;;;5030504;28;20077;-75
2022/06/10 05:54:43;;;;;;;13.40;3.70;;;15.80;99.90;;;;;;5030211;28;20072;-75
2022/06/10 05:57:11;;;;;;;8.27;3.70;;;15.80;99.90;;;;;;5013865;28;20499;-75
2022/06/10 05:59:37;;;;;;;10.55;3.70;;;15.80;99.90;;;;;;5030140;28;20077;-75
2022/06/10 06:02:05;;;;;;;9.98;3.60;;;15.70;99.90;;;;;;5029800;28;20135;-75
2022/06/10 06:04:31;;;;;;;9.25;3.50;;;15.70;99.90;;;;;;5013782;28;20037;-75
2022/06/10 06:06:57;;;;;;;9.75;3.67;;;15.80;99.90;;;;;;5030161;28;20415;-75
2022/06/10 06:09:23;;;;;;;6.78;3.05;;;15.90;99.90;;;;;;5030263;28;20088;-75
2022/06/10 06:11:50;;;;;;;6.72;3.40;;;15.90;99.90;;;;;;5030088;28;20049;-75
2022/06/10 06:14:18;;;;;;;10.45;3.38;;;15.90;99.90;;;;;;5030333;28;20390;-75
2022/06/10 06:16:50;;;;;;;8.82;3.30;;;15.90;99.90;;;;;;5030075;28;20044;-75
2022/06/10 06:19:15;;;;;;;16.42;4.18;;;15.90;99.90;;;;;;5030236;28;20487;-75
2022/06/10 06:21:41;;;;;;;14.43;3.50;;;16.00;99.90;;;;;;5030057;28;20064;-75
2022/06/10 06:24:07;;;;;;;10.60;3.20;;;16.10;99.90;;;;;;5030028;28;20075;-75
2022/06/10 06:26:32;;;;;;;8.55;2.92;;;16.20;99.90;;;;;;5029990;28;20033;-76
2022/06/10 06:28:58;;;;;;;13.45;3.47;;;16.20;99.90;;;;;;5013399;28;20430;-75
2022/06/10 06:31:23;;;;;;;7.93;2.92;;;16.30;99.90;;;;;;5029656;28;20045;-76
2022/06/10 06:33:49;;;;;;;9.48;3.35;;;16.30;99.90;;;;;;5029743;28;20053;-76
2022/06/10 06:36:22;;;;;;;7.63;3.10;;;16.30;99.90;;;;;;5029812;28;20053;-75
2022/06/10 06:38:48;;;;;;;9.88;3.67;;;16.30;99.90;;;;;;5030077;28;20083;-75
2022/06/10 06:41:14;;;;;;;7.32;3.05;;;16.30;99.90;;;;;;5029477;28;20204;-75
2022/06/10 06:43:39;;;;;;;8.60;3.35;;;16.30;99.90;;;;;;5029753;28;20086;-75
2022/06/10 06:46:05;;;;;;;9.05;3.50;;;16.30;99.90;;;;;;5029625;28;20041;-75
2022/06/10 06:48:31;;;;;;;13.10;3.28;;;16.30;99.90;;;;;;5029708;28;20048;-75
2022/06/10 06:50:56;;;;;;;10.95;3.67;;;16.20;99.90;;;;;;5012874;28;20163;-75
2022/06/10 06:53:22;;;;;;;7.80;3.80;;;16.30;99.90;;;;;;5029438;28;20049;-75
2022/06/10 06:55:47;;;;;;;7.80;3.65;;;16.20;99.90;;;;;;5029318;28;20080;-75
2022/06/10 06:58:16;;;;;;;8.20;3.65;;;16.20;99.90;;;;;;5012850;28;20041;-75
2022/06/10 07:00:41;;;;;;;11.10;4.15;;;16.30;99.90;;;;;;5012977;28;20143;-75
2022/06/10 07:03:08;;;;;;;9.73;4.10;;;16.30;99.90;;;;;;5029327;28;20359;-75
2022/06/10 07:05:35;;;;;;;10.25;3.92;;;16.30;99.90;;;;;;5029151;28;20045;-75
2022/06/10 07:08:01;;;;;;;7.03;3.92;;;16.40;99.90;;;;;;5029213;28;20499;-76
2022/06/10 07:10:27;;;;;;;8.27;4.28;;;16.40;99.90;;;;;;5012585;28;20041;-75
2022/06/10 07:12:53;;;;;;;11.45;4.35;;;16.60;99.90;;;;;;5028931;28;20301;-75
2022/06/10 07:15:21;;;;;;;10.02;4.20;;;16.80;99.90;;;;;;5028876;28;20487;-75
2022/06/10 07:17:47;;;;;;;11.40;4.57;;;16.80;99.90;;;;;;5012938;28;20037;-75
2022/06/10 07:20:24;;;;;;;12.55;5.00;;;16.90;99.90;;;;;;5029246;28;20068;-75
2022/06/10 07:22:49;;;;;;;10.85;5.30;;;17.00;99.90;;;;;;5012891;28;20045;-75
2022/06/10 07:25:15;;;;;;;10.10;5.28;;;17.00;99.90;;;;;;5012647;28;20549;-75
2022/06/10 07:27:42;;;;;;;11.30;5.55;;;17.10;99.90;;;;;;5029115;28;20038;-75
2022/06/10 07:30:09;;;;;;;14.45;5.78;;;17.10;99.90;;;;;;5012675;28;20044;-75
2022/06/10 07:32:35;;;;;;;12.73;6.47;;;17.20;99.90;;;;;;5029000;28;20037;-75
2022/06/10 07:35:00;;;;;;;9.70;5.15;;;17.30;99.90;;;;;;5028984;28;20472;-75
2022/06/10 07:37:26;;;;;;;11.02;5.82;;;17.30;99.90;;;;;;5028741;28;20046;-75
2022/06/10 07:39:52;;;;;;;9.80;5.40;;;17.30;99.90;;;;;;5028762;28;20049;-76
2022/06/10 07:42:18;;;;;;;12.57;6.20;;;17.30;99.90;;;;;;5028726;28;20041;-76
2022/06/10 07:44:44;;;;;;;9.13;5.85;;;17.30;99.90;;;;;;5028864;28;20482;-76
2022/06/10 07:47:12;;;;;;;12.70;5.57;;;17.20;99.90;;;;;;5028667;28;20046;-75
2022/06/10 07:49:38;;;;;;;10.77;5.53;;;17.20;99.90;;;;;;5028693;28;20491;-75
2022/06/10 07:52:05;;;;;;;9.00;5.60;;;17.20;99.90;;;;;;5028564;28;20046;-76
2022/06/10 07:54:31;;;;;;;9.75;5.22;;;17.30;99.90;;;;;;5012170;28;20503;-75
2022/06/10 07:56:57;;;;;;;7.53;4.72;;;17.30;99.90;;;;;;5012156;28;20049;-76
2022/06/10 07:59:23;;;;;;;8.10;4.95;;;17.40;99.90;;;;;;5028666;28;20041;-76
2022/06/10 08:01:48;;;;;;;11.65;5.35;;;17.60;99.90;;;;;;5012078;28;20053;-75
2022/06/10 08:04:14;;;;;;;9.60;4.68;;;17.70;99.90;;;;;;5028644;28;20063;-76
2022/06/10 08:06:43;;;;;;;11.40;4.90;;;17.70;99.90;;;;;;5028633;28;20053;-76
2022/06/10 08:09:10;;;;;;;6.70;3.83;;;17.70;99.90;;;;;;5012192;28;20048;-76
2022/06/10 08:11:37;;;;;;;11.00;4.60;;;17.80;99.90;;;;;;5028840;28;20113;-76
2022/06/10 08:14:03;;;;;;;12.73;4.50;;;17.80;99.90;;;;;;5028807;28;20099;-76
2022/06/10 08:16:29;;;;;;;11.77;5.05;;;17.80;99.90;;;;;;5028638;28;20124;-76
2022/06/10 08:18:55;;;;;;;9.13;4.78;;;17.70;99.90;;;;;;5012578;28;20136;-75
2022/06/10 08:24:06;;;;;;;10.93;4.82;;;17.60;99.90;;;;;;5028381;28;20046;-75
2022/06/10 08:26:33;;;;;;;9.02;4.60;;;17.60;99.90;;;;;;5031894;28;20073;-75
2022/06/10 08:29:00;;;;;;;11.90;5.15;;;17.70;99.90;;;;;;5032032;28;20123;-75
2022/06/10 08:31:26;;;;;;;8.70;4.82;;;17.60;99.90;;;;;;5032341;28;20403;-75
2022/06/10 08:33:52;;;;;;;10.07;5.15;;;17.70;99.90;;;;;;5031829;28;20041;-75
2022/06/10 08:36:18;;;;;;;12.57;4.90;;;17.80;99.90;;;;;;5015448;28;20077;-75
2022/06/10 08:38:44;;;;;;;10.90;4.43;;;17.90;99.90;;;;;;5031822;28;20049;-75
2022/06/10 08:41:49;;;;;;;11.27;4.80;;;18.00;99.90;;;;;;5032048;28;20049;-75
2022/06/10 08:44:58;;;;;;;10.80;4.90;;;18.10;99.90;;;;;;5031684;28;20034;-75
2022/06/10 08:47:48;;;;;;;11.57;4.93;;;18.00;99.90;;;;;;5018941;28;20099;-75
2022/06/10 08:50:45;;;;;;;9.93;5.47;;;17.90;99.90;;;;;;5015477;28;20081;-76
2022/06/10 08:53:49;;;;;;;12.35;4.97;;;17.90;99.90;;;;;;5014441;28;20137;-75
2022/06/10 08:56:22;;;;;;;9.82;5.00;;;17.90;99.90;;;;;;5015227;28;20053;-75
2022/06/10 08:59:05;;;;;;;11.73;4.80;;;17.90;99.90;;;;;;5014992;28;20053;-75
2022/06/10 09:01:37;;;;;;;8.90;4.88;;;18.10;99.90;;;;;;5014937;28;20510;-76
2022/06/10 09:04:20;;;;;;;10.95;4.70;;;18.30;99.90;;;;;;5031586;28;20538;-75
2022/06/10 09:06:51;;;;;;;9.52;4.60;;;18.60;99.90;;;;;;5031835;28;20068;-75
2022/06/10 09:09:20;;;;;;;7.63;3.90;;;18.90;99.90;;;;;;5013963;23;20507;-73
2022/06/10 09:12:11;;;;;;;10.70;4.07;;;19.20;99.90;;;;;;4992316;28;20527;-73
2022/06/10 09:14:37;;;;;;;8.88;4.32;;;19.40;99.90;;;;;;4991881;28;20050;-74
2022/06/10 09:17:43;;;;;;;9.73;3.95;;;19.40;99.90;;;;;;4992341;28;20064;-73
2022/06/10 09:20:29;;;;;;;6.20;3.88;;;19.50;99.90;;;;;;4975504;28;20046;-73
2022/06/10 09:23:01;;;;;;;10.75;3.83;;;19.50;99.90;;;;;;4991675;28;20050;-73
2022/06/10 09:25:35;;;;;;;7.55;3.88;;;19.60;99.90;;;;;;4975853;28;20046;-74
2022/06/10 09:28:01;;;;;;;9.75;4.10;;;19.60;99.90;;;;;;4991742;28;20511;-74
2022/06/10 09:30:41;;;;;;;11.13;4.60;;;19.50;99.90;;;;;;4991849;28;20046;-74
2022/06/10 09:33:30;;;;;;;8.98;4.20;;;19.50;99.90;;;;;;4991535;28;20042;-74
2022/06/10 09:36:17;;;;;;;9.02;3.90;;;19.50;99.90;;;;;;4974806;28;20043;-73
2022/06/10 09:40:35;;;;;;;7.80;3.60;;;19.50;99.90;;;;;;4991319;28;20443;-74
2022/06/10 09:42:22;;;;;;;13.55;4.53;;;19.60;99.90;;;;;;4986414;28;20054;-74
2022/06/10 09:44:54;;;;;;;10.55;4.55;;;19.50;99.90;;;;;;4990580;28;20515;-73
2022/06/10 09:47:58;;;;;;;9.95;4.18;;;19.30;99.90;;;;;;4975080;28;20507;-74
2022/06/10 09:50:32;;;;;;;9.00;4.15;;;19.10;99.90;;;;;;4980478;28;20181;-74
2022/06/10 09:53:18;;;;;;;9.63;4.43;;;18.90;99.90;;;;;;4975050;28;20079;-73
2022/06/10 09:56:02;;;;;;;12.15;4.75;;;18.80;99.90;;;;;;4991553;28;20074;-73
2022/06/10 09:58:52;;;;;;;10.63;4.93;;;18.80;99.90;;;;;;4991163;28;20045;-73
2022/06/10 10:01:39;;;;;;;6.57;4.32;;;18.80;99.90;;;;;;4991068;28;20042;-73
2022/06/10 10:04:45;;;;;;;8.93;4.07;;;19.00;99.90;;;;;;4991193;28;20428;-73
2022/06/10 10:07:23;;;;;;;10.07;3.78;;;19.30;99.90;;;;;;4975052;28;20042;-73
2022/06/10 10:09:51;;;;;;;10.05;4.60;;;19.60;99.90;;;;;;4990638;28;20055;-73
2022/06/10 10:12:19;;;;;;;10.05;4.28;;;19.80;99.90;;;;;;4974664;28;20508;-73
2022/06/10 10:14:49;;;;;;;9.55;3.92;;;20.10;99.90;;;;;;4990686;28;20054;-73
2022/06/10 10:17:56;;;;;;;8.02;3.60;;;20.30;99.90;;;;;;4990743;28;20038;-73
2022/06/10 10:20:40;;;;;;;12.07;3.90;;;20.60;99.90;;;;;;4990602;28;20046;-73
2022/06/10 10:23:11;;;;;;;8.23;4.13;;;20.70;99.90;;;;;;4990898;28;20062;-73
2022/06/10 10:25:40;;;;;;;6.13;3.45;;;20.70;99.90;;;;;;4990756;28;20077;-73
2022/06/10 10:28:24;;;;;;;7.47;3.70;;;20.80;99.90;;;;;;4974328;28;20537;-73
2022/06/10 10:31:20;;;;;;;10.18;3.33;;;20.90;99.90;;;;;;4990341;28;20041;-73
2022/06/10 10:33:47;;;;;;;7.72;3.35;;;21.00;99.90;;;;;;4974506;28;20038;-73
2022/06/10 10:36:32;;;;;;;9.98;3.53;;;21.20;99.90;;;;;;4974083;28;20510;-73
2022/06/10 10:39:17;;;;;;;7.38;3.80;;;21.30;99.90;;;;;;4990172;28;20034;-73
2022/06/10 10:41:47;;;;;;;5.97;3.17;;;21.20;99.90;;;;;;4990313;28;20043;-73
2022/06/10 10:44:31;;;;;;;8.75;3.42;;;21.30;99.90;;;;;;4974372;28;20484;-73
2022/06/10 10:47:01;;;;;;;11.82;3.45;;;21.10;99.90;;;;;;4990199;28;20052;-73
2022/06/10 10:49:32;;;;;;;8.23;3.28;;;21.10;99.90;;;;;;4989935;28;20046;-73
2022/06/10 10:51:59;;;;;;;7.30;3.38;;;21.20;99.90;;;;;;4990242;28;20057;-73
2022/06/10 10:54:25;;;;;;;7.45;3.40;;;21.30;99.90;;;;;;4990252;28;20042;-73
2022/06/10 10:56:52;;;;;;;5.45;3.13;;;21.30;99.90;;;;;;4973833;28;20042;-73
2022/06/10 10:59:37;;;;;;;8.43;3.50;;;21.30;99.90;;;;;;4974019;28;20481;-73
2022/06/10 11:02:31;;;;;;;7.65;3.25;;;21.30;99.90;;;;;;4973779;28;20058;-73
2022/06/10 11:05:47;;;;;;;5.97;2.85;;;21.40;99.90;;;;;;4990172;28;20381;-73
2022/06/10 11:08:28;;;;;;;9.07;3.30;;;21.20;99.90;;;;;;4957626;28;20058;-73
2022/06/10 11:10:58;;;;;;;7.20;3.25;;;21.20;99.90;;;;;;4973648;28;20050;-73
2022/06/10 11:13:47;;;;;;;8.90;2.93;;;21.20;99.90;;;;;;4990017;28;20092;-73
2022/06/10 11:16:22;;;;;;;5.57;2.45;;;21.20;99.90;;;;;;4989832;28;20555;-73
2022/06/10 11:18:50;;;;;;;7.50;3.03;;;21.00;99.90;;;;;;4989787;28;20061;-73
2022/06/10 11:21:16;;;;;;;10.63;3.25;;;20.80;99.90;;;;;;4989939;28;20583;-73
2022/06/10 11:23:54;;;;;;;9.43;3.70;;;20.70;99.90;;;;;;4989728;28;20042;-73
2022/06/10 11:26:22;;;;;;;7.50;2.97;;;20.60;99.90;;;;;;4989818;28;20353;-73
2022/06/10 11:28:49;;;;;;;7.38;2.90;;;20.70;99.90;;;;;;4990138;28;20637;-73
2022/06/10 11:31:26;;;;;;;6.13;3.13;;;21.00;99.90;;;;;;4989798;28;20412;-73
2022/06/10 11:33:55;;;;;;;8.43;3.28;;;21.40;99.90;;;;;;4989840;28;20046;-74
2022/06/10 11:36:47;;;;;;;10.77;3.47;;;21.60;99.90;;;;;;4989763;28;20385;-73
2022/06/10 11:39:17;;;;;;;;;;;21.60;99.90;;;;;;4982073;28;20154;-74
2022/06/10 11:41:56;;;;;;;8.63;3.03;;;21.70;99.90;;;;;;4989682;28;19926;-73
2022/06/10 11:44:24;;;;;;;9.75;3.00;;;22.00;99.90;;;;;;4989643;28;20042;-73
2022/06/10 11:47:01;;;;;;;5.50;2.40;;;22.00;99.90;;;;;;4989580;28;20046;-73
2022/06/10 11:49:40;;;;;;;6.75;2.83;;;21.90;99.90;;;;;;4990013;28;20435;-73
2022/06/10 11:52:24;;;;;;;10.38;3.42;;;21.90;99.90;;;;;;4989602;28;20128;-73
2022/06/10 11:55:15;;;;;;;7.82;2.70;;;21.80;99.90;;;;;;4973305;28;20042;-73
2022/06/10 12:00:59;;;;;;;9.25;3.13;;;22.40;99.90;;;;;;4991473;28;19921;-73
2022/06/10 12:03:57;;;;;;;7.90;2.77;;;22.50;99.90;;;;;;4977178;28;20082;-73
2022/06/10 12:06:29;;;;;;;8.38;2.40;;;22.70;99.90;;;;;;4993139;28;20352;-73
2022/06/10 12:09:09;;;;;;;7.75;3.13;;;22.80;99.90;;;;;;4993047;28;20062;-73
2022/06/10 12:11:38;;;;;;;10.50;2.72;;;22.80;99.90;;;;;;4976766;28;20050;-73
2022/06/10 12:14:12;;;;;;;9.60;2.75;;;22.60;99.90;;;;;;4993037;28;20100;-74
2022/06/10 12:16:39;;;;;;;6.88;2.67;;;22.50;99.90;;;;;;4992793;28;20050;-73
2022/06/10 12:19:16;;;;;;;8.38;3.13;;;22.40;99.90;;;;;;4993125;28;20388;-73
2022/06/10 12:21:42;;;;;;;5.47;2.70;;;22.40;99.90;;;;;;4976578;28;20484;-73
2022/06/10 12:24:16;;;;;;;6.18;2.75;;;22.40;99.90;;;;;;4992833;28;20122;-73
2022/06/10 12:26:59;;;;;;;11.65;2.88;;;22.50;99.90;;;;;;4992762;28;20542;-73
2022/06/10 12:29:50;;;;;;;8.15;2.90;;;22.60;99.90;;;;;;4992723;28;20081;-73
2022/06/10 12:32:25;;;;;;;7.60;3.05;;;22.60;99.90;;;;;;4992828;28;20088;-73
2022/06/10 12:35:02;;;;;;;11.15;3.05;;;22.70;99.90;;;;;;4976620;28;20444;-73
2022/06/10 12:38:01;;;;;;;6.75;2.58;;;22.80;99.90;;;;;;4992498;28;20054;-73
2022/06/10 12:40:28;;;;;;;8.65;2.55;;;23.00;99.90;;;;;;4992579;28;20050;-73
2022/06/10 12:43:05;;;;;;;6.35;2.72;;;23.10;99.90;;;;;;4976066;28;20412;-73
2022/06/10 12:45:56;;;;;;;6.85;2.80;;;23.20;99.90;;;;;;4992699;28;20381;-73
2022/06/10 12:48:26;;;;;;;11.23;3.00;;;23.30;99.90;;;;;;4992301;28;20397;-73
2022/06/10 12:51:11;;;;;;;8.32;2.72;;;23.40;99.90;;;;;;4992386;28;20217;-73
2022/06/10 12:54:00;;;;;;;7.32;2.50;;;23.40;99.90;;;;;;4992316;28;20046;-73
2022/06/10 12:56:34;;;;;;;6.43;2.30;;;23.40;99.90;;;;;;4992181;28;20050;-73
2022/06/10 12:59:06;;;;;;;8.60;3.17;;;23.20;99.90;;;;;;4992266;28;20042;-73
2022/06/10 13:01:32;;;;;;;7.00;2.47;;;23.20;99.90;;;;;;4991979;28;20492;-73
2022/06/10 13:04:01;;;;;;;7.60;3.13;;;23.20;99.90;;;;;;4992060;28;20045;-73
2022/06/10 13:06:41;;;;;;;7.57;2.65;;;23.10;99.90;;;;;;4991987;28;20042;-73
2022/06/10 13:09:10;;;;;;;8.90;2.47;;;23.10;99.90;;;;;;4991866;28;20046;-73
2022/06/10 13:11:46;;;;;;;7.88;2.92;;;23.10;99.90;;;;;;4990560;28;20050;-73
2022/06/10 13:14:30;;;;;;;6.38;2.85;;;23.20;99.90;;;;;;4975745;28;20046;-73
2022/06/10 13:16:58;;;;;;;8.05;2.72;;;23.10;99.90;;;;;;4991647;28;20062;-73
2022/06/10 13:19:38;;;;;;;4.68;2.25;;;23.10;99.70;;;;;;4992091;28;20447;-73
2022/06/10 13:22:33;;;;;;;6.47;2.70;;;23.00;99.50;;;;;;4991650;28;20133;-73
2022/06/10 13:24:58;;;;;;;6.90;2.72;;;22.90;99.90;;;;;;4991814;28;20046;-74
2022/06/10 13:27:33;;;;;;;7.57;2.60;;;22.90;99.90;;;;;;4991748;28;20415;-73